Time;durP1;ratioP1;P1;durP2;ratioP2;P2;SDS_P1;SDS_P2;PMS_P1;PMS_P2;Temp;Humidity;BMP_temperature;BMP_pressure;BME280_temperature;BME280_humidity;BME280_pressure;Samples;Min_cycle;Max_cycle;Signal;HPM_P1;HPM_P2
2023/06/03 00:01:53;;;;;;;12.00;7.60;;;16.60;99.90;;;;;;4985434;28;20600;-66
2023/06/03 00:04:21;;;;;;;12.07;6.65;;;16.50;99.90;;;;;;4987443;28;20036;-66
2023/06/03 00:06:47;;;;;;;8.25;5.55;;;16.50;99.90;;;;;;4984598;28;20053;-66
2023/06/03 00:09:13;;;;;;;13.65;6.20;;;16.30;99.90;;;;;;4987004;28;20097;-66
2023/06/03 00:11:39;;;;;;;11.88;6.82;;;16.30;99.90;;;;;;4984184;28;20509;-67
2023/06/03 00:14:05;;;;;;;9.23;7.27;;;16.30;99.90;;;;;;4988543;28;20080;-67
2023/06/03 00:16:34;;;;;;;;;;;16.20;99.90;;;;;;4983895;28;20150;-67
2023/06/03 00:19:00;;;;;;;13.27;7.75;;;16.20;99.90;;;;;;4983663;28;19914;-66
2023/06/03 00:21:27;;;;;;;14.82;8.70;;;16.10;99.90;;;;;;4982305;28;20502;-66
2023/06/03 00:23:53;;;;;;;15.77;7.70;;;16.10;99.90;;;;;;4983394;28;20125;-66
2023/06/03 00:26:20;;;;;;;9.35;7.38;;;16.00;99.90;;;;;;4982786;28;20133;-67
2023/06/03 00:28:46;;;;;;;13.23;7.80;;;15.80;99.90;;;;;;4984319;28;20077;-66
2023/06/03 00:31:11;;;;;;;9.23;6.83;;;15.70;99.90;;;;;;4986799;28;20433;-66
2023/06/03 00:33:37;;;;;;;10.80;7.37;;;15.90;99.90;;;;;;4981256;28;20030;-67
2023/06/03 00:36:03;;;;;;;10.20;6.67;;;16.00;99.90;;;;;;4984744;28;20026;-67
2023/06/03 00:38:28;;;;;;;11.00;7.00;;;15.90;99.90;;;;;;4987157;28;20037;-66
2023/06/03 00:40:54;;;;;;;11.83;6.93;;;15.90;99.90;;;;;;4981489;28;20320;-67
2023/06/03 00:43:19;;;;;;;13.53;8.00;;;16.00;99.90;;;;;;4985224;28;20391;-67
2023/06/03 00:45:45;;;;;;;16.60;6.70;;;16.10;99.90;;;;;;4973548;28;20074;-66
2023/06/03 00:48:11;;;;;;;11.03;6.93;;;16.20;99.90;;;;;;4982474;28;20077;-66
2023/06/03 00:50:39;;;;;;;11.10;7.38;;;16.20;99.90;;;;;;4985735;28;20030;-67
2023/06/03 00:53:05;;;;;;;9.93;7.20;;;16.20;99.90;;;;;;4983214;28;20487;-66
2023/06/03 00:55:31;;;;;;;9.52;7.00;;;16.20;99.90;;;;;;4985552;28;20081;-66
2023/06/03 00:57:57;;;;;;;;;;;16.10;99.90;;;;;;4999760;28;20027;-66
2023/06/03 01:00:22;;;;;;;9.55;7.32;;;15.80;99.90;;;;;;4981265;28;19912;-67
2023/06/03 01:02:48;;;;;;;12.30;7.10;;;15.60;99.90;;;;;;4982780;28;20109;-66
2023/06/03 01:05:14;;;;;;;13.97;7.53;;;15.70;99.90;;;;;;4983649;28;20046;-66
2023/06/03 01:08:03;;;;;;;16.92;8.38;;;15.70;99.90;;;;;;4978746;28;20086;-66
2023/06/03 01:10:34;;;;;;;12.70;7.80;;;15.70;99.90;;;;;;4978484;28;20661;-66
2023/06/03 01:13:07;;;;;;;13.68;7.53;;;15.70;99.90;;;;;;4983589;28;20069;-66
2023/06/03 01:15:35;;;;;;;9.18;7.28;;;15.70;99.90;;;;;;4980668;28;20058;-67
2023/06/03 01:18:04;;;;;;;14.50;8.10;;;15.70;99.90;;;;;;4985651;28;20023;-67
2023/06/03 01:20:29;;;;;;;19.13;8.30;;;15.60;99.90;;;;;;4984807;28;20034;-67
2023/06/03 01:23:06;;;;;;;12.80;7.63;;;15.60;99.90;;;;;;4989163;28;20037;-66
2023/06/03 01:25:32;;;;;;;11.45;7.22;;;15.60;99.90;;;;;;4987933;28;20426;-67
2023/06/03 01:27:58;;;;;;;11.33;7.77;;;15.60;99.90;;;;;;4988238;28;20598;-66
2023/06/03 01:30:24;;;;;;;10.45;7.57;;;15.50;99.90;;;;;;4988417;28;20096;-66
2023/06/03 01:32:51;;;;;;;15.93;7.13;;;15.60;99.90;;;;;;4984609;28;20046;-66
2023/06/03 01:35:17;;;;;;;12.35;7.50;;;15.60;99.90;;;;;;4988407;28;20082;-66
2023/06/03 01:37:44;;;;;;;;;;;15.50;99.90;;;;;;4986426;28;20125;-66
2023/06/03 01:40:10;;;;;;;13.15;7.22;;;15.20;99.90;;;;;;4990526;28;19906;-66
2023/06/03 01:42:36;;;;;;;;;;;15.30;99.90;;;;;;4988010;28;20026;-66
2023/06/03 01:45:03;;;;;;;13.13;7.05;;;15.30;99.90;;;;;;4989235;28;20021;-66
2023/06/03 01:47:30;;;;;;;13.32;6.97;;;15.30;99.90;;;;;;4989274;28;20054;-67
2023/06/03 01:49:56;;;;;;;10.95;7.82;;;15.40;99.90;;;;;;4986629;28;20042;-67
2023/06/03 01:52:21;;;;;;;12.75;7.28;;;15.40;99.90;;;;;;4988525;28;20037;-66
2023/06/03 01:54:47;;;;;;;11.03;6.37;;;15.50;99.90;;;;;;4988288;28;20057;-66
2023/06/03 01:57:13;;;;;;;13.23;7.17;;;15.30;99.90;;;;;;4988757;28;20066;-66
2023/06/03 01:59:38;;;;;;;13.87;7.47;;;15.30;99.90;;;;;;4985453;28;20038;-66
2023/06/03 02:02:04;;;;;;;10.83;6.40;;;15.20;99.90;;;;;;4985750;28;20462;-67
2023/06/03 02:04:31;;;;;;;10.30;7.28;;;15.10;99.90;;;;;;4972856;28;20048;-66
2023/06/03 02:07:01;;;;;;;15.80;7.13;;;15.30;99.90;;;;;;4980085;28;20082;-66
2023/06/03 02:09:28;;;;;;;13.90;6.97;;;15.30;99.90;;;;;;4984942;28;20454;-66
2023/06/03 02:11:54;;;;;;;12.23;7.45;;;15.10;99.90;;;;;;4988102;28;20071;-66
2023/06/03 02:14:20;;;;;;;19.15;8.02;;;14.90;99.90;;;;;;4986693;28;20114;-66
2023/06/03 02:16:48;;;;;;;10.73;7.35;;;15.10;99.90;;;;;;4986592;28;20502;-66
2023/06/03 02:19:21;;;;;;;8.48;6.75;;;15.00;99.90;;;;;;4989031;28;20093;-66
2023/06/03 02:21:48;;;;;;;12.93;6.80;;;15.00;99.90;;;;;;4985695;28;20030;-66
2023/06/03 02:24:14;;;;;;;13.38;7.13;;;14.80;99.90;;;;;;4986481;28;20022;-66
2023/06/03 02:26:49;;;;;;;;;;;15.00;99.90;;;;;;4987586;28;20072;-66
2023/06/03 02:29:17;;;;;;;13.48;7.88;;;15.20;99.90;;;;;;4988650;28;19921;-66
2023/06/03 02:31:43;;;;;;;14.10;7.22;;;15.10;99.90;;;;;;4980399;28;20376;-66
2023/06/03 02:34:09;;;;;;;14.50;7.55;;;15.00;99.90;;;;;;4979886;28;20117;-67
2023/06/03 02:36:35;;;;;;;10.17;7.93;;;15.10;99.90;;;;;;4980706;28;20469;-67
2023/06/03 02:39:01;;;;;;;16.48;6.97;;;14.90;99.90;;;;;;4977956;28;20882;-67
2023/06/03 02:41:27;;;;;;;10.13;7.07;;;14.90;99.90;;;;;;4984793;28;20150;-66
2023/06/03 02:43:52;;;;;;;12.87;7.43;;;14.80;99.90;;;;;;4981336;28;20133;-67
2023/06/03 02:46:18;;;;;;;9.33;7.00;;;14.80;99.90;;;;;;4979499;28;20049;-67
2023/06/03 02:48:43;;;;;;;9.50;7.10;;;14.80;99.90;;;;;;4981668;28;20031;-66
2023/06/03 02:51:09;;;;;;;13.00;7.67;;;14.80;99.90;;;;;;4985673;28;20506;-67
2023/06/03 02:53:35;;;;;;;14.10;7.37;;;14.90;99.90;;;;;;4998601;28;20062;-66
2023/06/03 02:56:01;;;;;;;18.25;8.38;;;14.90;99.90;;;;;;4982790;28;20114;-66
2023/06/03 02:58:26;;;;;;;13.70;7.47;;;14.90;99.90;;;;;;4980152;28;20817;-66
2023/06/03 03:00:52;;;;;;;13.03;7.83;;;14.80;99.90;;;;;;4981875;28;20106;-66
2023/06/03 03:03:18;;;;;;;15.43;7.57;;;14.80;99.90;;;;;;4979560;28;20077;-66
2023/06/03 03:05:43;;;;;;;13.20;7.00;;;14.80;99.90;;;;;;4982209;28;20138;-66
2023/06/03 03:08:09;;;;;;;12.87;7.00;;;14.90;99.90;;;;;;4979079;28;20395;-66
2023/06/03 03:10:35;;;;;;;13.40;7.72;;;14.90;99.90;;;;;;4977780;28;20045;-66
2023/06/03 03:13:00;;;;;;;11.90;7.37;;;14.90;99.90;;;;;;4980994;28;20737;-66
2023/06/03 03:15:26;;;;;;;13.00;6.93;;;14.90;99.90;;;;;;4983026;28;20197;-66
2023/06/03 03:17:52;;;;;;;13.60;9.00;;;14.70;99.90;;;;;;4978780;28;20453;-66
2023/06/03 03:20:17;;;;;;;20.93;9.10;;;14.70;99.90;;;;;;4979726;28;20038;-66
2023/06/03 03:22:46;;;;;;;11.97;7.03;;;14.80;99.90;;;;;;4979707;28;20109;-67
2023/06/03 03:25:12;;;;;;;8.93;6.93;;;14.60;99.90;;;;;;4971931;28;20740;-67
2023/06/03 03:27:38;;;;;;;11.47;7.57;;;14.60;99.90;;;;;;4977092;28;20065;-67
2023/06/03 03:30:05;;;;;;;13.60;7.35;;;14.70;99.90;;;;;;4984971;28;20040;-67
2023/06/03 03:32:31;;;;;;;7.95;6.22;;;14.60;99.90;;;;;;4978885;28;20038;-66
2023/06/03 03:35:18;;;;;;;9.07;6.70;;;14.70;99.90;;;;;;4979879;28;20027;-66
2023/06/03 03:37:44;;;;;;;13.47;7.80;;;14.50;99.90;;;;;;4982716;28;20038;-66
2023/06/03 03:40:19;;;;;;;14.60;6.78;;;14.50;99.90;;;;;;4985363;28;20285;-66
2023/06/03 03:42:52;;;;;;;13.75;6.88;;;14.40;99.90;;;;;;4977553;28;20507;-66
2023/06/03 03:45:19;;;;;;;9.63;6.45;;;14.50;99.90;;;;;;4979804;28;20058;-66
2023/06/03 03:47:49;;;;;;;12.80;6.97;;;14.40;99.90;;;;;;4985069;28;20101;-66
2023/06/03 03:50:52;;;;;;;13.60;7.75;;;14.40;99.90;;;;;;4979236;28;20066;-66
2023/06/03 03:53:23;;;;;;;11.93;7.28;;;14.50;99.90;;;;;;4973461;28;20033;-69
2023/06/03 03:55:53;;;;;;;20.52;7.63;;;14.50;99.90;;;;;;4973543;28;20035;-66
2023/06/03 03:58:28;;;;;;;15.57;6.97;;;14.50;99.90;;;;;;4977963;28;20026;-66
2023/06/03 04:00:59;;;;;;;11.90;7.18;;;14.40;99.90;;;;;;4979715;28;20117;-66
2023/06/03 04:03:25;;;;;;;16.00;7.40;;;14.40;99.90;;;;;;4982189;28;20093;-66
2023/06/03 04:05:51;;;;;;;;;;;14.50;99.90;;;;;;4977947;28;20042;-66
2023/06/03 04:08:43;;;;;;;9.98;7.40;;;14.50;99.90;;;;;;4981554;28;19925;-66
2023/06/03 04:11:17;;;;;;;10.57;6.93;;;14.60;99.90;;;;;;4981462;28;20030;-67
2023/06/03 04:13:43;;;;;;;10.57;7.55;;;14.80;99.90;;;;;;4979049;28;20097;-66
2023/06/03 04:16:46;;;;;;;11.50;6.70;;;14.80;99.90;;;;;;4979187;28;20458;-66
2023/06/03 04:19:32;;;;;;;12.70;6.80;;;14.80;99.90;;;;;;4979676;28;20049;-66
2023/06/03 04:21:59;;;;;;;9.30;6.65;;;14.60;99.90;;;;;;4979051;28;20104;-67
2023/06/03 04:24:25;;;;;;;;;;;14.70;99.90;;;;;;4978532;28;20045;-67
2023/06/03 04:26:51;;;;;;;23.13;7.68;;;14.60;99.90;;;;;;4983080;28;20455;-67
2023/06/03 04:29:17;;;;;;;14.18;7.40;;;14.70;99.90;;;;;;4979965;28;20030;-67
2023/06/03 04:31:43;;;;;;;11.05;6.95;;;14.80;99.90;;;;;;4979082;28;20035;-67
2023/06/03 04:34:08;;;;;;;11.53;6.60;;;14.90;99.90;;;;;;4978909;28;20041;-67
2023/06/03 04:36:35;;;;;;;12.63;6.23;;;15.00;99.90;;;;;;4980559;28;20038;-67
2023/06/03 04:39:00;;;;;;;14.23;6.03;;;14.90;99.90;;;;;;4983857;28;20643;-66
2023/06/03 04:41:32;;;;;;;14.17;6.10;;;14.90;99.90;;;;;;4982495;28;20049;-67
2023/06/03 04:44:01;;;;;;;11.88;6.25;;;14.80;99.90;;;;;;4978499;28;20246;-66
2023/06/03 04:46:31;;;;;;;7.63;5.82;;;14.60;99.90;;;;;;4979758;28;20929;-66
2023/06/03 04:48:58;;;;;;;10.85;5.93;;;14.80;99.90;;;;;;4978159;28;20042;-66
2023/06/03 04:51:27;;;;;;;10.63;7.03;;;14.90;99.90;;;;;;4974588;28;20035;-66
2023/06/03 04:53:57;;;;;;;11.38;6.03;;;15.20;99.90;;;;;;4980827;28;20054;-67
2023/06/03 04:56:28;;;;;;;10.73;5.72;;;15.50;99.90;;;;;;4976546;28;20076;-66
2023/06/03 04:59:03;;;;;;;10.93;5.93;;;15.50;99.90;;;;;;4974460;28;20122;-66
2023/06/03 05:01:31;;;;;;;8.77;5.18;;;15.50;99.90;;;;;;4981247;28;20022;-67
2023/06/03 05:03:57;;;;;;;9.13;6.35;;;15.60;99.90;;;;;;4981629;28;20391;-67
2023/06/03 05:06:23;;;;;;;14.40;5.77;;;15.50;99.90;;;;;;4975959;28;20491;-67
2023/06/03 05:08:50;;;;;;;10.63;6.25;;;15.80;99.90;;;;;;4980674;28;20039;-66
2023/06/03 05:11:20;;;;;;;8.18;5.40;;;16.10;99.90;;;;;;4979344;28;20551;-66
2023/06/03 05:13:46;;;;;;;12.63;5.57;;;16.10;99.90;;;;;;4977008;28;20034;-66
2023/06/03 05:16:12;;;;;;;12.93;6.00;;;16.10;99.90;;;;;;4980990;28;20026;-66
2023/06/03 05:18:39;;;;;;;14.25;6.57;;;16.20;99.90;;;;;;4980023;28;20030;-66
2023/06/03 05:21:05;;;;;;;8.23;4.97;;;16.20;99.90;;;;;;4982990;28;20030;-66
2023/06/03 05:23:31;;;;;;;8.55;5.30;;;16.30;99.90;;;;;;4974738;28;20019;-66
2023/06/03 05:25:56;;;;;;;8.90;5.10;;;16.60;99.90;;;;;;4979878;28;20054;-67
2023/06/03 05:28:22;;;;;;;6.13;5.40;;;16.70;99.90;;;;;;4978411;28;20026;-66
2023/06/03 05:30:47;;;;;;;7.67;5.30;;;16.80;99.90;;;;;;4981525;28;20430;-67
2023/06/03 05:33:30;;;;;;;8.37;5.37;;;16.70;99.90;;;;;;4978740;28;20033;-67
2023/06/03 05:35:56;;;;;;;11.57;5.50;;;16.70;99.90;;;;;;4975512;28;20066;-66
2023/06/03 05:38:22;;;;;;;7.68;5.25;;;16.70;99.90;;;;;;4980089;28;20050;-67
2023/06/03 05:40:50;;;;;;;17.65;5.82;;;17.10;99.90;;;;;;4979216;28;20080;-67
2023/06/03 05:43:16;;;;;;;12.45;6.18;;;18.30;99.90;;;;;;4976402;28;20022;-66
2023/06/03 05:45:42;;;;;;;9.73;4.88;;;18.70;99.90;;;;;;4973618;28;20074;-66
2023/06/03 05:48:08;;;;;;;9.10;5.22;;;18.40;99.90;;;;;;4980384;28;20034;-66
2023/06/03 05:50:38;;;;;;;15.90;5.63;;;18.90;99.90;;;;;;4976953;28;20402;-65
2023/06/03 05:53:04;;;;;;;9.57;4.30;;;20.80;99.90;;;;;;4981357;28;20042;-66
2023/06/03 05:55:30;;;;;;;10.32;5.07;;;21.90;98.50;;;;;;4975176;28;20034;-65
2023/06/03 05:57:56;;;;;;;;;;;22.40;95.00;;;;;;4979445;28;20038;-66
2023/06/03 06:00:22;;;;;;;14.77;4.60;;;22.20;94.80;;;;;;4983564;28;19910;-67
2023/06/03 06:02:47;;;;;;;12.68;5.05;;;21.30;96.40;;;;;;4980324;28;20049;-67
2023/06/03 06:05:14;;;;;;;9.30;4.63;;;20.70;97.80;;;;;;4980653;28;20129;-67
2023/06/03 06:07:39;;;;;;;9.85;4.35;;;20.50;98.50;;;;;;4978169;28;20064;-66
2023/06/03 06:10:05;;;;;;;8.37;4.27;;;20.10;99.70;;;;;;4979161;28;20062;-65
2023/06/03 06:12:31;;;;;;;7.82;3.85;;;19.80;99.90;;;;;;4981425;28;20031;-66
2023/06/03 06:14:57;;;;;;;9.37;4.57;;;19.70;99.90;;;;;;4980628;28;20039;-66
2023/06/03 06:17:22;;;;;;;15.20;4.20;;;19.60;99.90;;;;;;4978052;28;20034;-66
2023/06/03 06:19:48;;;;;;;10.43;4.53;;;19.40;99.90;;;;;;4982943;28;20462;-66
2023/06/03 06:22:13;;;;;;;6.43;4.07;;;19.80;99.90;;;;;;4984788;28;20527;-66
2023/06/03 06:24:39;;;;;;;9.13;3.80;;;20.10;99.90;;;;;;4972653;28;20042;-66
2023/06/03 06:27:05;;;;;;;12.63;5.23;;;20.00;99.90;;;;;;4979250;28;20781;-66
2023/06/03 06:29:31;;;;;;;;;;;19.90;99.90;;;;;;4983027;28;20030;-66
2023/06/03 06:31:57;;;;;;;10.48;4.35;;;19.90;99.90;;;;;;4983244;28;20016;-66
2023/06/03 06:34:23;;;;;;;11.55;4.30;;;20.20;99.90;;;;;;4978035;28;20517;-66
2023/06/03 06:36:49;;;;;;;14.25;4.65;;;19.90;99.90;;;;;;4980094;28;20090;-66
2023/06/03 06:39:33;;;;;;;10.35;4.75;;;20.40;99.90;;;;;;4981779;28;20030;-65
2023/06/03 06:42:11;;;;;;;6.22;4.38;;;21.00;99.00;;;;;;4980930;28;20042;-65
2023/06/03 06:44:47;;;;;;;8.73;3.80;;;20.50;98.90;;;;;;4980442;28;20506;-65
2023/06/03 06:47:24;;;;;;;13.40;4.00;;;20.40;99.80;;;;;;4983212;28;20041;-67
2023/06/03 06:49:50;;;;;;;4.00;3.30;;;19.80;98.90;;;;;;4982655;28;20030;-66
2023/06/03 06:52:19;;;;;;;10.45;3.78;;;19.40;99.90;;;;;;4981498;28;20030;-67
2023/06/03 06:54:44;;;;;;;5.00;3.58;;;19.80;99.90;;;;;;4981856;28;20030;-68
2023/06/03 06:57:10;;;;;;;4.90;3.92;;;20.20;99.90;;;;;;4981392;28;20077;-67
2023/06/03 06:59:36;;;;;;;12.00;4.07;;;20.30;99.90;;;;;;4998353;28;20474;-69
2023/06/03 07:02:02;;;;;;;11.87;4.37;;;20.00;99.90;;;;;;4984826;28;20054;-69
2023/06/03 07:04:27;;;;;;;10.20;4.77;;;19.30;99.90;;;;;;4982817;28;20292;-68
2023/06/03 07:06:53;;;;;;;6.50;4.40;;;19.20;99.90;;;;;;4979198;28;20057;-66
2023/06/03 07:09:19;;;;;;;4.97;3.87;;;19.20;99.90;;;;;;4981138;28;20033;-68
2023/06/03 07:11:46;;;;;;;8.43;4.40;;;19.30;99.90;;;;;;4977003;28;20053;-69
2023/06/03 07:14:12;;;;;;;10.88;4.22;;;19.40;99.90;;;;;;4979558;28;20101;-67
2023/06/03 07:16:38;;;;;;;;;;;19.40;99.90;;;;;;4980267;28;20038;-68
2023/06/03 07:19:05;;;;;;;7.65;4.63;;;19.60;99.90;;;;;;4985614;28;19914;-68
2023/06/03 07:21:35;;;;;;;11.13;4.40;;;19.80;99.90;;;;;;4982259;28;20031;-67
2023/06/03 07:24:01;;;;;;;5.80;3.95;;;19.80;99.90;;;;;;4979916;28;20025;-67
2023/06/03 07:26:28;;;;;;;6.93;4.75;;;19.70;99.90;;;;;;4983007;28;20043;-67
2023/06/03 07:28:57;;;;;;;6.93;3.90;;;19.50;99.90;;;;;;4982262;28;20045;-67
2023/06/03 07:31:23;;;;;;;11.93;4.35;;;19.80;99.90;;;;;;4981999;28;20458;-67
2023/06/03 07:33:50;;;;;;;6.25;4.13;;;20.10;99.90;;;;;;4982340;28;20061;-68
2023/06/03 07:36:18;;;;;;;8.15;5.03;;;20.00;99.90;;;;;;4979538;28;20030;-68
2023/06/03 07:38:59;;;;;;;7.80;3.78;;;20.50;99.90;;;;;;4978575;28;20503;-67
2023/06/03 07:41:51;;;;;;;10.02;4.15;;;20.50;99.90;;;;;;4975663;28;20019;-67
2023/06/03 07:44:29;;;;;;;9.50;4.25;;;20.60;99.00;;;;;;4976576;28;20081;-68
2023/06/03 07:46:59;;;;;;;5.13;3.83;;;21.10;98.10;;;;;;4980660;28;20038;-68
2023/06/03 07:49:25;;;;;;;9.30;4.45;;;21.40;97.30;;;;;;4979867;28;20109;-68
2023/06/03 07:51:52;;;;;;;8.95;4.28;;;21.70;97.40;;;;;;4979702;28;20114;-68
2023/06/03 07:54:18;;;;;;;5.63;3.50;;;21.90;95.10;;;;;;4978107;28;20467;-68
2023/06/03 07:56:45;;;;;;;5.03;3.42;;;22.20;97.00;;;;;;4979690;28;20501;-68
2023/06/03 07:59:13;;;;;;;4.55;3.60;;;22.50;95.00;;;;;;4977396;28;20526;-68
2023/06/03 08:01:39;;;;;;;6.93;3.50;;;22.40;93.00;;;;;;4982536;28;20038;-67
2023/06/03 08:04:29;;;;;;;6.07;3.80;;;22.70;93.30;;;;;;4984146;28;20031;-67
2023/06/03 08:06:56;;;;;;;6.57;3.63;;;23.00;92.80;;;;;;4983451;28;20042;-68
2023/06/03 08:09:35;;;;;;;10.70;4.72;;;23.40;91.40;;;;;;4977490;28;20106;-68
2023/06/03 08:12:04;;;;;;;4.38;3.55;;;23.40;90.40;;;;;;4978301;28;20498;-67
2023/06/03 08:14:32;;;;;;;5.85;3.90;;;23.70;92.00;;;;;;4981678;28;20088;-67
2023/06/03 08:17:08;;;;;;;10.40;4.72;;;24.70;88.70;;;;;;4976603;28;20242;-67
2023/06/03 08:19:34;;;;;;;6.53;4.30;;;25.00;89.20;;;;;;4981314;28;20099;-67
2023/06/03 08:22:00;;;;;;;32.92;7.93;;;25.00;86.30;;;;;;4994361;28;20049;-67
2023/06/03 08:24:26;;;;;;;7.82;3.90;;;25.40;85.10;;;;;;4978235;28;20105;-67
2023/06/03 08:26:51;;;;;;;6.53;4.03;;;25.40;82.00;;;;;;4980473;28;20039;-68
2023/06/03 08:29:17;;;;;;;13.33;5.23;;;27.10;81.30;;;;;;4984454;28;20414;-67
2023/06/03 08:31:42;;;;;;;6.10;3.67;;;29.00;76.60;;;;;;4980566;28;20332;-68
2023/06/03 08:34:08;;;;;;;13.67;5.83;;;28.90;73.40;;;;;;4975394;28;20332;-68
2023/06/03 08:36:35;;;;;;;8.55;3.80;;;28.40;71.20;;;;;;4981445;28;20292;-68
2023/06/03 08:39:01;;;;;;;9.18;3.97;;;29.10;68.00;;;;;;4980877;28;20410;-68
2023/06/03 08:41:36;;;;;;;6.90;4.00;;;29.10;69.10;;;;;;4983110;28;20387;-68
2023/06/03 08:44:07;;;;;;;11.52;4.32;;;29.60;68.70;;;;;;4980757;28;20474;-66
2023/06/03 08:46:44;;;;;;;12.90;3.55;;;30.30;65.70;;;;;;4973776;28;20046;-66
2023/06/03 08:49:22;;;;;;;4.65;3.75;;;28.00;67.00;;;;;;4982022;28;20070;-66
2023/06/03 08:51:54;;;;;;;6.05;4.10;;;26.10;69.70;;;;;;4980503;28;20031;-65
2023/06/03 08:54:23;;;;;;;4.75;3.88;;;25.60;76.00;;;;;;4979390;28;20117;-68
2023/06/03 08:56:56;;;;;;;6.47;3.63;;;26.50;76.00;;;;;;4979851;28;20114;-68
2023/06/03 08:59:24;;;;;;;6.05;3.33;;;28.70;72.20;;;;;;4981066;28;20486;-68
2023/06/03 09:01:53;;;;;;;4.18;3.20;;;29.10;69.60;;;;;;4979719;28;20486;-68
2023/06/03 09:04:20;;;;;;;16.70;4.07;;;29.50;67.80;;;;;;4979176;28;20101;-68
2023/06/03 09:06:48;;;;;;;6.15;3.20;;;29.50;65.20;;;;;;4979523;28;20493;-68
2023/06/03 09:09:15;;;;;;;6.53;3.35;;;28.20;66.60;;;;;;4982147;28;20034;-68
2023/06/03 09:11:42;;;;;;;7.38;3.38;;;27.80;69.90;;;;;;4982121;28;20027;-68
2023/06/03 09:14:10;;;;;;;6.72;3.10;;;28.90;68.70;;;;;;4976582;28;20113;-68
2023/06/03 09:16:36;;;;;;;6.13;3.53;;;29.60;68.70;;;;;;4979044;28;20026;-68
2023/06/03 09:19:02;;;;;;;6.05;3.50;;;30.10;68.20;;;;;;4974254;28;20031;-68
2023/06/03 09:21:28;;;;;;;;;;;30.20;64.70;;;;;;4979313;28;20058;-68
2023/06/03 09:23:54;;;;;;;5.93;3.10;;;31.20;64.20;;;;;;4977755;28;19914;-66
2023/06/03 09:26:21;;;;;;;;;;;32.30;62.50;;;;;;4974093;28;20407;-66
2023/06/03 09:28:47;;;;;;;6.43;3.03;;;33.50;60.80;;;;;;4982800;28;19913;-67
2023/06/03 09:31:12;;;;;;;;;;;31.90;58.80;;;;;;4982448;28;20114;-67
2023/06/03 09:33:39;;;;;;;5.75;2.90;;;30.90;62.90;;;;;;4982409;28;20279;-68
2023/06/03 09:36:13;;;;;;;11.93;4.00;;;32.70;62.10;;;;;;4977688;28;20035;-67
2023/06/03 09:38:50;;;;;;;3.85;2.70;;;30.90;62.20;;;;;;4985384;28;20031;-67
2023/06/03 09:41:18;;;;;;;3.72;2.75;;;31.50;63.10;;;;;;4984084;28;20035;-68
2023/06/03 09:44:01;;;;;;;5.68;2.58;;;30.70;61.90;;;;;;4981510;28;20030;-66
2023/06/03 09:46:29;;;;;;;4.13;2.95;;;30.80;61.90;;;;;;4983226;28;20078;-66
2023/06/03 09:49:17;;;;;;;3.60;2.85;;;30.90;62.70;;;;;;4982384;28;20037;-69
2023/06/03 09:51:44;;;;;;;6.75;2.90;;;30.60;64.20;;;;;;4985170;28;20042;-67
2023/06/03 09:54:37;;;;;;;3.08;2.80;;;32.00;65.90;;;;;;4995153;28;20030;-68
2023/06/03 09:57:11;;;;;;;6.57;2.97;;;30.60;59.90;;;;;;4980808;28;20050;-68
2023/06/03 09:59:37;;;;;;;4.07;2.97;;;31.10;62.00;;;;;;4983110;28;20027;-69
2023/06/03 10:02:10;;;;;;;3.97;3.00;;;32.50;60.70;;;;;;4986883;28;20030;-69
2023/06/03 10:04:46;;;;;;;4.93;2.75;;;30.90;59.10;;;;;;4980719;28;20056;-68
2023/06/03 10:07:13;;;;;;;;;;;32.50;61.90;;;;;;4983197;28;20105;-67
2023/06/03 10:09:41;;;;;;;3.33;2.38;;;32.80;59.40;;;;;;4982058;28;19913;-67
2023/06/03 10:12:07;;;;;;;7.85;2.63;;;33.40;57.70;;;;;;4984954;28;20030;-67
2023/06/03 10:14:33;;;;;;;6.00;2.80;;;33.90;58.30;;;;;;4982467;28;20451;-67
2023/06/03 10:17:09;;;;;;;5.70;2.53;;;32.80;56.80;;;;;;4981875;28;20061;-67
2023/06/03 10:19:36;;;;;;;;;;;33.50;60.10;;;;;;4985042;28;20026;-67
2023/06/03 10:22:06;;;;;;;6.25;2.70;;;32.60;60.60;;;;;;4981237;28;19922;-68
2023/06/03 10:24:34;;;;;;;5.03;2.72;;;30.90;61.80;;;;;;4997261;28;20034;-67
2023/06/03 10:27:01;;;;;;;5.15;2.85;;;30.30;63.50;;;;;;4981839;28;20105;-67
2023/06/03 10:29:29;;;;;;;3.80;3.20;;;30.00;65.20;;;;;;4981366;28;20113;-67
2023/06/03 10:31:57;;;;;;;6.43;2.95;;;29.60;66.20;;;;;;4984218;28;20085;-67
2023/06/03 10:34:23;;;;;;;6.72;3.22;;;29.10;68.20;;;;;;4982642;28;20513;-67
2023/06/03 10:36:52;;;;;;;;;;;28.80;67.00;;;;;;4982611;28;20414;-67
2023/06/03 10:39:19;;;;;;;6.32;3.10;;;28.70;65.80;;;;;;4982404;28;19914;-67
2023/06/03 10:41:45;;;;;;;8.10;3.58;;;28.40;64.10;;;;;;4984073;28;20133;-67
2023/06/03 10:44:11;;;;;;;5.95;3.42;;;28.40;67.90;;;;;;4980623;28;20121;-68
2023/06/03 10:46:45;;;;;;;5.15;2.90;;;28.40;67.00;;;;;;4983396;28;20050;-67
2023/06/03 10:49:14;;;;;;;7.15;4.10;;;27.90;68.30;;;;;;4981721;28;20054;-68
2023/06/03 10:52:33;;;;;;;4.07;3.30;;;28.20;72.30;;;;;;4979610;28;20048;-69
2023/06/03 10:55:16;;;;;;;5.47;3.55;;;28.30;69.10;;;;;;4984894;28;20046;-68
2023/06/03 10:58:02;;;;;;;5.50;3.55;;;28.30;69.90;;;;;;4964799;28;20081;-69
2023/06/03 11:00:59;;;;;;;8.25;4.03;;;28.20;69.20;;;;;;4975755;28;20121;-69
2023/06/03 11:03:27;;;;;;;4.45;3.35;;;28.10;69.10;;;;;;4982843;28;20109;-69
2023/06/03 11:05:53;;;;;;;7.57;4.00;;;27.90;70.60;;;;;;4981855;28;20072;-69
2023/06/03 11:08:57;;;;;;;7.72;4.28;;;28.10;72.00;;;;;;4980097;28;20034;-69
2023/06/03 11:11:41;;;;;;;6.53;4.10;;;28.20;71.30;;;;;;4983349;28;20073;-69
2023/06/03 11:14:11;;;;;;;10.80;4.05;;;28.10;71.10;;;;;;4980180;28;20145;-69
2023/06/03 11:16:58;;;;;;;6.03;3.83;;;28.20;71.40;;;;;;4980779;28;20086;-69
2023/06/03 11:19:31;;;;;;;5.82;4.53;;;28.10;70.20;;;;;;4978389;28;20035;-69
2023/06/03 11:21:57;;;;;;;5.90;4.45;;;28.00;72.90;;;;;;4982651;28;20444;-69
2023/06/03 11:24:56;;;;;;;6.07;4.22;;;27.90;72.50;;;;;;4984129;28;20030;-68
2023/06/03 11:27:24;;;;;;;9.65;4.63;;;27.80;70.30;;;;;;4965075;28;20058;-69
2023/06/03 11:29:51;;;;;;;4.65;3.67;;;27.60;69.20;;;;;;4978642;28;20026;-68
2023/06/03 11:32:26;;;;;;;5.57;4.15;;;26.80;72.70;;;;;;4986385;28;20084;-69
2023/06/03 11:35:03;;;;;;;4.60;3.63;;;27.30;72.30;;;;;;4981780;28;20014;-69
2023/06/03 11:37:40;;;;;;;5.70;3.90;;;27.40;73.20;;;;;;4981674;28;20105;-69
2023/06/03 11:40:08;;;;;;;6.57;4.30;;;27.30;72.30;;;;;;4984195;28;20038;-68
2023/06/03 11:42:46;;;;;;;5.18;4.20;;;27.60;72.70;;;;;;4978820;28;20026;-69
2023/06/03 11:45:29;;;;;;;6.65;4.22;;;27.80;73.00;;;;;;4980489;28;20038;-68
2023/06/03 11:47:56;;;;;;;7.20;3.78;;;27.60;72.20;;;;;;4991625;28;20102;-68
2023/06/03 11:50:50;;;;;;;5.68;4.00;;;27.70;72.30;;;;;;4976154;28;20037;-68
2023/06/03 11:53:35;;;;;;;8.45;4.75;;;27.50;71.90;;;;;;4977915;28;20126;-68
2023/06/03 11:56:12;;;;;;;5.55;4.20;;;27.20;73.40;;;;;;4980913;28;20046;-68
2023/06/03 11:58:40;;;;;;;8.90;5.82;;;26.70;74.20;;;;;;4981749;28;20022;-68
2023/06/03 12:01:07;;;;;;;12.27;5.60;;;26.50;73.20;;;;;;4982010;28;20031;-68
2023/06/03 12:03:34;;;;;;;7.15;4.70;;;26.90;74.30;;;;;;4979398;28;20026;-68
2023/06/03 12:06:02;;;;;;;6.95;4.55;;;27.40;78.20;;;;;;4978591;28;20062;-69
2023/06/03 12:08:41;;;;;;;5.35;4.60;;;27.90;73.60;;;;;;4976732;28;20027;-69
2023/06/03 12:11:07;;;;;;;12.25;5.05;;;27.80;73.60;;;;;;4977061;28;20038;-67
2023/06/03 12:13:41;;;;;;;7.82;5.65;;;27.80;74.30;;;;;;4979601;28;20561;-68
2023/06/03 12:16:06;;;;;;;9.50;5.70;;;27.80;73.00;;;;;;4977860;28;20042;-67
2023/06/03 12:18:32;;;;;;;6.40;5.13;;;27.90;75.10;;;;;;4976360;28;20395;-67
2023/06/03 12:21:18;;;;;;;;;;;28.00;74.70;;;;;;4979482;28;20085;-67
2023/06/03 12:23:45;;;;;;;8.43;5.10;;;27.90;74.30;;;;;;4994571;28;19914;-67
2023/06/03 12:26:10;;;;;;;7.80;4.68;;;27.80;75.00;;;;;;4974707;28;20030;-68
2023/06/03 12:28:36;;;;;;;7.93;5.22;;;27.70;73.80;;;;;;4981205;28;20073;-68
2023/06/03 12:31:13;;;;;;;5.88;5.20;;;27.90;74.40;;;;;;4982263;28;20105;-68
2023/06/03 12:33:48;;;;;;;9.13;4.97;;;28.00;76.70;;;;;;4978562;28;20034;-68
2023/06/03 12:36:14;;;;;;;12.90;5.97;;;28.10;77.50;;;;;;4988987;28;20610;-68
2023/06/03 12:38:53;;;;;;;8.60;4.93;;;28.20;78.30;;;;;;4975068;28;20046;-67
2023/06/03 12:41:18;;;;;;;6.80;5.28;;;28.40;74.20;;;;;;4981127;28;20113;-68
2023/06/03 12:43:45;;;;;;;9.10;5.63;;;28.40;73.40;;;;;;4980303;28;20498;-67
2023/06/03 12:46:18;;;;;;;6.38;4.72;;;28.40;72.00;;;;;;4976892;28;20475;-67
2023/06/03 12:48:46;;;;;;;12.77;5.00;;;28.40;73.10;;;;;;4973985;28;20031;-67
2023/06/03 12:51:22;;;;;;;9.80;5.30;;;28.40;73.50;;;;;;4982424;28;20117;-67
2023/06/03 12:53:48;;;;;;;6.72;5.20;;;28.30;74.60;;;;;;4974773;28;20307;-67
2023/06/03 12:56:13;;;;;;;7.93;6.10;;;28.20;74.10;;;;;;4973528;28;20430;-67
2023/06/03 12:58:39;;;;;;;7.15;5.60;;;28.10;73.80;;;;;;4979357;28;20035;-68
2023/06/03 13:01:04;;;;;;;8.13;5.78;;;28.20;73.60;;;;;;4977970;28;20415;-67